Time;durP1;ratioP1;P1;durP2;ratioP2;P2;SDS_P1;SDS_P2;PMS_P1;PMS_P2;Temp;Humidity;BMP_temperature;BMP_pressure;BME280_temperature;BME280_humidity;BME280_pressure;Samples;Min_cycle;Max_cycle;Signal;HPM_P1;HPM_P2
2021/10/24 00:00:07;;;;;;;8.97;3.07;;;19.10;52.70;;;;;;5026178;28;20555;-85
2021/10/24 00:02:36;;;;;;;7.40;3.53;;;19.10;52.60;;;;;;5028785;28;20443;-85
2021/10/24 00:05:05;;;;;;;5.50;3.17;;;19.10;52.70;;;;;;5028717;28;20455;-86
2021/10/24 00:07:33;;;;;;;7.70;3.60;;;19.10;52.70;;;;;;5028676;28;20483;-86
2021/10/24 00:10:01;;;;;;;8.13;3.93;;;19.10;52.70;;;;;;5028583;28;20467;-85
2021/10/24 00:12:29;;;;;;;4.20;3.67;;;19.10;52.70;;;;;;5028627;28;20593;-86
2021/10/24 00:14:58;;;;;;;6.07;3.40;;;19.10;52.80;;;;;;5028227;28;20423;-86
2021/10/24 00:17:27;;;;;;;11.70;4.20;;;19.00;52.70;;;;;;5025644;28;20443;-85
2021/10/24 00:19:56;;;;;;;8.57;3.60;;;19.00;52.90;;;;;;5026218;28;20466;-85
2021/10/24 00:22:24;;;;;;;6.50;3.40;;;19.10;52.90;;;;;;5025441;28;20476;-85
2021/10/24 00:24:52;;;;;;;4.47;3.27;;;19.00;52.60;;;;;;5029404;28;20475;-85
2021/10/24 00:27:20;;;;;;;11.53;3.70;;;19.00;52.70;;;;;;5029321;28;20459;-86
2021/10/24 00:29:49;;;;;;;6.50;4.40;;;19.00;52.90;;;;;;5029228;28;20431;-86
2021/10/24 00:32:17;;;;;;;8.17;4.20;;;19.00;52.80;;;;;;5029499;28;20460;-86
2021/10/24 00:34:47;;;;;;;4.10;3.33;;;19.00;52.80;;;;;;5030301;28;20444;-85
2021/10/24 00:37:15;;;;;;;9.17;3.87;;;19.00;52.80;;;;;;5030950;28;20520;-85
2021/10/24 00:39:43;;;;;;;6.03;3.23;;;19.00;52.70;;;;;;5030128;28;20478;-85
2021/10/24 00:42:11;;;;;;;4.20;3.47;;;19.00;52.70;;;;;;5021857;28;20537;-85
2021/10/24 00:44:40;;;;;;;4.40;3.50;;;19.00;52.80;;;;;;5030964;28;20880;-85
2021/10/24 00:47:09;;;;;;;20.57;3.83;;;19.00;52.80;;;;;;5030671;28;20475;-85
2021/10/24 00:49:37;;;;;;;4.87;3.10;;;19.00;52.80;;;;;;5030733;28;20451;-86
2021/10/24 00:52:07;;;;;;;3.97;3.57;;;19.00;52.90;;;;;;5031139;28;20470;-86
2021/10/24 00:54:35;;;;;;;5.77;3.80;;;19.00;52.90;;;;;;5031228;28;20495;-86
2021/10/24 00:57:05;;;;;;;4.90;3.83;;;19.00;52.80;;;;;;5032404;28;20451;-86
2021/10/24 00:59:33;;;;;;;7.47;3.13;;;19.00;52.90;;;;;;5031845;28;20443;-85
2021/10/24 01:02:01;;;;;;;4.43;3.33;;;19.00;52.90;;;;;;5030997;28;20555;-86
2021/10/24 01:04:30;;;;;;;4.53;3.50;;;19.00;52.80;;;;;;5031203;28;20475;-86
2021/10/24 01:07:02;;;;;;;8.97;3.77;;;19.00;52.90;;;;;;5030930;28;20475;-86
2021/10/24 01:09:33;;;;;;;8.20;3.60;;;19.00;52.90;;;;;;5031151;28;20482;-86
2021/10/24 01:12:02;;;;;;;7.07;3.60;;;19.00;52.80;;;;;;5030754;28;20452;-86
2021/10/24 01:14:30;;;;;;;4.40;3.37;;;19.00;52.90;;;;;;5035835;28;20467;-85
2021/10/24 01:16:59;;;;;;;4.73;3.77;;;19.00;52.90;;;;;;5030009;28;20478;-85
2021/10/24 01:19:27;;;;;;;3.97;3.47;;;18.90;52.90;;;;;;5032370;28;20440;-85
2021/10/24 01:21:56;;;;;;;9.63;3.97;;;18.90;52.80;;;;;;5027274;28;20475;-86
2021/10/24 01:24:25;;;;;;;5.80;3.50;;;18.90;52.80;;;;;;5027883;28;20471;-86
2021/10/24 01:26:54;;;;;;;10.77;3.57;;;18.90;52.70;;;;;;5019943;28;20535;-85
2021/10/24 01:29:23;;;;;;;4.90;3.60;;;18.90;52.90;;;;;;5027530;28;20469;-86
2021/10/24 01:31:51;;;;;;;5.10;3.50;;;18.90;52.80;;;;;;5028065;28;20506;-85
2021/10/24 01:34:21;;;;;;;5.80;3.70;;;18.90;52.70;;;;;;5027366;28;20505;-85
2021/10/24 01:36:52;;;;;;;3.77;3.33;;;18.90;52.80;;;;;;5030228;28;20514;-86
2021/10/24 01:39:21;;;;;;;7.50;3.43;;;18.90;52.80;;;;;;5030964;28;20508;-87
2021/10/24 01:41:50;;;;;;;4.80;3.70;;;18.90;52.80;;;;;;5030136;28;20475;-86
2021/10/24 01:44:18;;;;;;;5.43;3.97;;;18.80;52.80;;;;;;5030569;28;20447;-86
2021/10/24 01:46:47;;;;;;;4.10;3.20;;;18.80;52.80;;;;;;5030809;28;20452;-86
2021/10/24 01:49:15;;;;;;;4.27;3.10;;;18.80;52.80;;;;;;5030660;28;20455;-86
2021/10/24 01:51:43;;;;;;;4.10;3.27;;;18.80;52.70;;;;;;5030464;28;20439;-86
2021/10/24 01:54:12;;;;;;;9.20;4.10;;;18.80;52.70;;;;;;5030435;28;20458;-86
2021/10/24 01:56:41;;;;;;;5.03;3.30;;;18.80;52.70;;;;;;5030560;28;20448;-86
2021/10/24 01:59:11;;;;;;;5.37;3.70;;;18.80;52.80;;;;;;5029630;28;20443;-86
2021/10/24 02:01:45;;;;;;;4.70;3.23;;;18.80;52.70;;;;;;5027063;28;20503;-86
2021/10/24 02:04:13;;;;;;;4.90;3.23;;;18.80;52.80;;;;;;5025520;28;20457;-86
2021/10/24 02:06:41;;;;;;;4.20;3.30;;;18.80;52.80;;;;;;5027038;28;20459;-86
2021/10/24 02:09:09;;;;;;;5.40;3.40;;;18.70;52.60;;;;;;5038342;28;20455;-86
2021/10/24 02:11:37;;;;;;;5.87;3.40;;;18.70;52.70;;;;;;5025507;28;20440;-86
2021/10/24 02:14:07;;;;;;;3.27;2.97;;;18.80;52.80;;;;;;5029477;28;20467;-86
2021/10/24 02:16:35;;;;;;;4.67;3.80;;;18.80;52.70;;;;;;5025093;28;20505;-85
2021/10/24 02:19:03;;;;;;;8.17;4.03;;;18.70;52.70;;;;;;5030582;28;20422;-85
2021/10/24 02:21:31;;;;;;;7.57;3.67;;;18.80;52.70;;;;;;5024968;28;20486;-85
2021/10/24 02:24:00;;;;;;;3.83;3.10;;;18.70;52.70;;;;;;5032712;28;20438;-85
2021/10/24 02:26:28;;;;;;;3.93;2.90;;;18.70;52.70;;;;;;5028794;28;20447;-85
2021/10/24 02:28:56;;;;;;;5.30;3.27;;;18.70;52.60;;;;;;5029042;28;20443;-85
2021/10/24 02:31:26;;;;;;;5.27;3.40;;;18.70;52.80;;;;;;5029569;28;20439;-85
2021/10/24 02:33:54;;;;;;;4.57;3.43;;;18.70;52.70;;;;;;5029348;28;20520;-85
2021/10/24 02:36:24;;;;;;;4.80;3.90;;;18.70;52.70;;;;;;5029727;28;20451;-85
2021/10/24 02:38:52;;;;;;;3.57;3.00;;;18.70;52.60;;;;;;5029585;28;20463;-85
2021/10/24 02:41:20;;;;;;;4.53;3.27;;;18.70;52.70;;;;;;5029303;28;20475;-85
2021/10/24 02:43:48;;;;;;;4.70;3.67;;;18.60;52.60;;;;;;5029479;28;20447;-85
2021/10/24 02:46:16;;;;;;;8.17;3.20;;;18.60;52.80;;;;;;5028456;28;20471;-85
2021/10/24 02:48:46;;;;;;;7.43;3.50;;;18.60;52.70;;;;;;5028053;28;20461;-85
2021/10/24 02:51:14;;;;;;;5.47;3.37;;;18.60;53.40;;;;;;5028987;28;20442;-85
2021/10/24 02:53:42;;;;;;;4.97;3.50;;;18.60;52.80;;;;;;5029388;28;20513;-85
2021/10/24 02:56:10;;;;;;;5.77;2.97;;;18.60;52.90;;;;;;5028644;28;20447;-84
2021/10/24 02:58:39;;;;;;;2.93;2.70;;;18.60;52.80;;;;;;5026322;28;20448;-84
2021/10/24 03:01:07;;;;;;;4.30;3.30;;;18.50;52.70;;;;;;5026306;28;20471;-85
2021/10/24 03:03:35;;;;;;;6.73;3.60;;;18.50;52.80;;;;;;5023504;28;20503;-84
2021/10/24 03:06:05;;;;;;;4.80;3.37;;;18.50;52.90;;;;;;5027259;28;20431;-84
2021/10/24 03:08:33;;;;;;;4.93;3.47;;;18.50;52.90;;;;;;5026716;28;20478;-84
2021/10/24 03:11:01;;;;;;;2.97;2.77;;;18.40;52.80;;;;;;5026636;28;20406;-84
2021/10/24 03:13:29;;;;;;;5.00;3.40;;;18.50;52.90;;;;;;5028343;28;20456;-84
2021/10/24 03:15:57;;;;;;;7.20;2.80;;;18.40;52.90;;;;;;5029163;28;20517;-85
2021/10/24 03:18:26;;;;;;;4.60;3.50;;;18.40;53.00;;;;;;5029092;28;20427;-84
2021/10/24 03:20:54;;;;;;;6.93;3.40;;;18.30;52.90;;;;;;5028833;28;20444;-84
2021/10/24 03:23:24;;;;;;;5.57;3.30;;;18.30;53.00;;;;;;5028978;28;20497;-84
2021/10/24 03:25:52;;;;;;;3.73;3.20;;;18.30;53.00;;;;;;5028864;28;20436;-84
2021/10/24 03:28:20;;;;;;;7.03;3.23;;;18.30;53.10;;;;;;5029165;28;20478;-85
2021/10/24 03:30:48;;;;;;;3.80;3.20;;;18.30;53.10;;;;;;5028788;28;20509;-85
2021/10/24 03:33:16;;;;;;;3.60;3.00;;;18.20;53.10;;;;;;5029039;28;20471;-85
2021/10/24 03:35:44;;;;;;;5.20;3.53;;;18.30;53.20;;;;;;5029134;28;20512;-85
2021/10/24 03:38:12;;;;;;;6.07;3.43;;;18.20;53.20;;;;;;5029126;28;20412;-85
2021/10/24 03:40:42;;;;;;;4.33;3.30;;;18.20;53.30;;;;;;5028761;28;20443;-85
2021/10/24 03:43:10;;;;;;;6.07;3.20;;;18.20;53.30;;;;;;5028545;28;20548;-85
2021/10/24 03:45:38;;;;;;;3.83;2.90;;;18.10;53.10;;;;;;5028904;28;20467;-85
2021/10/24 03:48:06;;;;;;;5.70;3.13;;;18.10;53.20;;;;;;5029051;28;20431;-86
2021/10/24 03:50:34;;;;;;;5.47;3.00;;;18.10;53.20;;;;;;5028584;28;20516;-86
2021/10/24 03:53:03;;;;;;;3.90;3.07;;;18.10;53.20;;;;;;5028991;28;20444;-86
2021/10/24 03:55:31;;;;;;;5.10;2.80;;;18.10;53.30;;;;;;5028710;28;20447;-86
2021/10/24 03:58:01;;;;;;;3.10;2.80;;;18.10;53.30;;;;;;5029788;28;20544;-86
2021/10/24 04:00:29;;;;;;;5.40;3.30;;;18.00;53.30;;;;;;5031481;28;20447;-86
2021/10/24 04:03:00;;;;;;;8.43;3.40;;;18.00;53.20;;;;;;5023679;28;20478;-86
2021/10/24 04:05:29;;;;;;;2.77;2.57;;;18.00;53.20;;;;;;5033313;28;20442;-85
2021/10/24 04:07:57;;;;;;;4.57;3.57;;;18.00;53.30;;;;;;5048282;28;20461;-86
2021/10/24 04:10:26;;;;;;;3.20;2.83;;;18.00;53.30;;;;;;5052381;28;20447;-85
2021/10/24 04:12:55;;;;;;;3.50;3.20;;;17.90;53.20;;;;;;5052357;28;20449;-85
2021/10/24 04:15:25;;;;;;;4.33;3.20;;;17.90;53.20;;;;;;5052215;28;20469;-86
2021/10/24 04:17:53;;;;;;;5.30;3.07;;;17.90;53.30;;;;;;5052556;28;20470;-86
2021/10/24 04:20:22;;;;;;;4.03;3.27;;;17.90;53.30;;;;;;5052147;28;20470;-86
2021/10/24 04:22:51;;;;;;;3.33;3.00;;;17.80;53.30;;;;;;5051789;28;20470;-83
2021/10/24 04:25:20;;;;;;;3.43;3.03;;;17.80;53.40;;;;;;5051105;28;20470;-83
2021/10/24 04:27:48;;;;;;;6.43;3.37;;;17.80;53.30;;;;;;5051120;28;20438;-83
2021/10/24 04:30:16;;;;;;;4.00;3.50;;;17.80;53.40;;;;;;5051602;28;20490;-83
2021/10/24 04:32:45;;;;;;;3.30;2.70;;;17.80;53.50;;;;;;5052046;28;20431;-84
2021/10/24 04:35:14;;;;;;;3.90;2.90;;;17.80;53.40;;;;;;5052429;28;20497;-84
2021/10/24 04:37:42;;;;;;;4.07;3.40;;;17.70;53.40;;;;;;5051864;28;20484;-85
2021/10/24 04:40:11;;;;;;;3.83;2.90;;;17.70;53.40;;;;;;5051385;28;20438;-85
2021/10/24 04:42:39;;;;;;;3.27;2.90;;;17.70;53.40;;;;;;5051123;28;20466;-84
2021/10/24 04:45:08;;;;;;;6.40;3.50;;;17.70;53.50;;;;;;5052216;28;20454;-85
2021/10/24 04:47:36;;;;;;;6.50;3.20;;;17.70;53.50;;;;;;5049719;28;20477;-84
2021/10/24 04:50:06;;;;;;;5.17;3.40;;;17.70;53.60;;;;;;5050543;28;20430;-85
2021/10/24 04:52:36;;;;;;;4.70;3.00;;;17.70;53.60;;;;;;5051575;28;20439;-85
2021/10/24 04:55:04;;;;;;;6.37;3.53;;;17.60;53.40;;;;;;5051722;28;20516;-85
2021/10/24 04:57:32;;;;;;;4.13;3.43;;;17.70;53.50;;;;;;5051473;28;20481;-85
2021/10/24 05:00:01;;;;;;;4.23;3.10;;;17.60;53.60;;;;;;5051326;28;20458;-85
2021/10/24 05:02:29;;;;;;;4.27;3.13;;;17.60;53.50;;;;;;5051142;28;20498;-85
2021/10/24 05:04:57;;;;;;;3.33;3.00;;;17.60;53.50;;;;;;5051603;28;20499;-85
2021/10/24 05:07:27;;;;;;;3.97;2.97;;;17.60;53.60;;;;;;5052240;28;20431;-86
2021/10/24 05:09:55;;;;;;;3.90;3.13;;;17.60;53.60;;;;;;5050372;28;20451;-86
2021/10/24 05:12:24;;;;;;;4.60;3.10;;;17.60;53.60;;;;;;5050191;28;20443;-86
2021/10/24 05:14:52;;;;;;;4.07;3.03;;;17.60;53.60;;;;;;5050041;28;20450;-86
2021/10/24 05:17:20;;;;;;;3.90;3.17;;;17.50;53.50;;;;;;5051118;28;20450;-87
2021/10/24 05:19:48;;;;;;;4.60;3.00;;;17.50;53.50;;;;;;5050702;28;20481;-87
2021/10/24 05:22:16;;;;;;;3.10;2.80;;;17.50;53.60;;;;;;5050730;28;20589;-86
2021/10/24 05:24:46;;;;;;;3.70;2.90;;;17.50;53.60;;;;;;5050905;28;20450;-86
2021/10/24 05:27:14;;;;;;;3.80;2.90;;;17.40;53.50;;;;;;5050982;28;20463;-86
2021/10/24 05:29:42;;;;;;;5.03;3.40;;;17.40;53.70;;;;;;5050960;28;20454;-86
2021/10/24 05:32:10;;;;;;;3.57;3.27;;;17.40;53.60;;;;;;5050488;28;20435;-86
2021/10/24 05:34:38;;;;;;;3.10;2.80;;;17.40;53.50;;;;;;5050568;28;20478;-86
2021/10/24 05:37:06;;;;;;;5.03;3.10;;;17.40;53.70;;;;;;5050611;28;20506;-86
2021/10/24 05:39:34;;;;;;;3.73;3.20;;;17.40;53.70;;;;;;5050924;28;20454;-86
2021/10/24 05:42:04;;;;;;;3.77;3.20;;;17.40;53.60;;;;;;5050261;28;20551;-86
2021/10/24 05:44:32;;;;;;;3.17;2.80;;;17.30;53.40;;;;;;5050835;28;20542;-86
2021/10/24 05:47:00;;;;;;;5.07;3.23;;;17.30;53.50;;;;;;5050663;28;20550;-86
2021/10/24 05:49:28;;;;;;;4.13;3.23;;;17.30;53.60;;;;;;5050489;28;20450;-86
2021/10/24 05:51:56;;;;;;;6.30;2.87;;;17.30;53.50;;;;;;5050382;28;20442;-87
2021/10/24 05:54:24;;;;;;;4.20;2.70;;;17.30;53.60;;;;;;5050770;28;20443;-86
2021/10/24 05:56:52;;;;;;;4.30;3.33;;;17.20;53.50;;;;;;5050605;28;20446;-86
2021/10/24 05:59:22;;;;;;;4.10;3.30;;;17.20;53.50;;;;;;5050120;28;20469;-86
2021/10/24 06:01:50;;;;;;;4.20;3.17;;;17.30;53.70;;;;;;5049868;28;20431;-85
2021/10/24 06:04:18;;;;;;;4.80;3.07;;;17.20;53.50;;;;;;5030421;28;20467;-86
2021/10/24 06:06:46;;;;;;;3.07;2.77;;;17.20;53.60;;;;;;5030433;28;20482;-85
2021/10/24 06:09:15;;;;;;;3.93;3.53;;;17.20;53.50;;;;;;5030468;28;20486;-85
2021/10/24 06:11:54;;;;;;;3.07;2.77;;;17.20;53.50;;;;;;5030170;28;20418;-86
2021/10/24 06:14:24;;;;;;;3.00;2.70;;;17.20;53.40;;;;;;5030196;28;20455;-86
2021/10/24 06:16:52;;;;;;;3.17;2.70;;;17.20;53.50;;;;;;5030254;28;20455;-86
2021/10/24 06:19:20;;;;;;;4.23;2.97;;;17.10;53.50;;;;;;5030162;28;20482;-86
2021/10/24 06:21:48;;;;;;;3.80;3.50;;;17.20;53.60;;;;;;5029624;28;20451;-86
2021/10/24 06:24:16;;;;;;;3.10;2.83;;;17.20;53.60;;;;;;5029994;28;20498;-86
2021/10/24 06:26:45;;;;;;;4.47;3.23;;;17.20;53.60;;;;;;5029976;28;20501;-86
2021/10/24 06:29:14;;;;;;;3.43;3.13;;;17.20;53.40;;;;;;5030078;28;20547;-86
2021/10/24 06:31:43;;;;;;;4.10;3.17;;;17.20;53.50;;;;;;5029847;28;20444;-87
2021/10/24 06:34:11;;;;;;;3.63;3.30;;;17.20;53.50;;;;;;5030344;28;20490;-87
2021/10/24 06:36:41;;;;;;;3.50;3.17;;;17.10;53.50;;;;;;5030257;28;20474;-87
2021/10/24 06:39:11;;;;;;;3.97;3.13;;;17.10;53.40;;;;;;5029786;28;20506;-86
2021/10/24 06:41:39;;;;;;;5.27;3.33;;;17.10;53.40;;;;;;5029621;28;20440;-87
2021/10/24 06:44:07;;;;;;;3.13;2.80;;;17.10;53.40;;;;;;5029772;28;20495;-87
2021/10/24 06:46:35;;;;;;;3.40;2.80;;;17.10;53.40;;;;;;5029881;28;20490;-86
2021/10/24 06:49:05;;;;;;;5.60;3.13;;;17.10;53.40;;;;;;5029568;28;20431;-86
2021/10/24 06:51:33;;;;;;;3.47;3.17;;;17.10;53.40;;;;;;5029561;28;20455;-86
2021/10/24 06:54:01;;;;;;;6.13;3.30;;;17.10;53.30;;;;;;5029843;28;20443;-86
2021/10/24 06:56:29;;;;;;;3.80;3.33;;;17.10;53.40;;;;;;5029626;28;20451;-84
2021/10/24 06:58:58;;;;;;;3.97;2.97;;;17.10;53.40;;;;;;5029449;28;20459;-85
2021/10/24 07:01:26;;;;;;;3.30;2.80;;;17.20;53.30;;;;;;5028426;28;20541;-85
2021/10/24 07:03:54;;;;;;;3.10;2.77;;;17.10;53.20;;;;;;5028986;28;20493;-85
2021/10/24 07:06:23;;;;;;;3.53;3.00;;;17.10;53.30;;;;;;5029269;28;20523;-85
2021/10/24 07:08:51;;;;;;;3.20;2.90;;;17.10;53.20;;;;;;5029414;28;20432;-85
2021/10/24 07:11:19;;;;;;;4.10;3.20;;;17.10;53.10;;;;;;5029268;28;20443;-85
2021/10/24 07:13:47;;;;;;;4.10;3.33;;;17.10;53.10;;;;;;5029191;28;20497;-85
2021/10/24 07:16:15;;;;;;;2.83;2.73;;;17.10;53.20;;;;;;5029575;28;20448;-85
2021/10/24 07:18:43;;;;;;;3.63;3.13;;;17.10;53.20;;;;;;5029526;28;20482;-85
2021/10/24 07:21:12;;;;;;;4.70;3.33;;;17.10;53.10;;;;;;5029199;28;20490;-85
2021/10/24 07:23:42;;;;;;;4.47;3.27;;;17.10;53.00;;;;;;5028881;28;20471;-85
2021/10/24 07:26:10;;;;;;;3.23;3.00;;;17.10;53.20;;;;;;5028682;28;20448;-85
2021/10/24 07:28:39;;;;;;;3.93;3.20;;;17.10;53.30;;;;;;5026662;28;20466;-85
2021/10/24 07:31:24;;;;;;;3.50;3.00;;;17.10;53.20;;;;;;5026590;28;20451;-86
2021/10/24 07:33:53;;;;;;;5.33;3.30;;;17.10;53.00;;;;;;5029591;28;20424;-85
2021/10/24 07:36:21;;;;;;;3.67;2.83;;;17.10;53.00;;;;;;5031037;28;20447;-85
2021/10/24 07:38:50;;;;;;;4.50;3.00;;;17.20;53.20;;;;;;5031556;28;20509;-85
2021/10/24 07:41:23;;;;;;;4.13;3.00;;;17.20;53.10;;;;;;5030489;28;20446;-85
2021/10/24 07:43:52;;;;;;;5.00;3.30;;;17.20;53.20;;;;;;5030930;28;20540;-86
2021/10/24 07:46:20;;;;;;;3.30;2.60;;;17.20;53.30;;;;;;5032475;28;20520;-85
2021/10/24 07:48:53;;;;;;;3.27;2.97;;;17.20;53.20;;;;;;5032638;28;20447;-85
2021/10/24 07:51:22;;;;;;;3.27;3.07;;;17.30;53.30;;;;;;5032166;28;20439;-84
2021/10/24 07:53:53;;;;;;;3.87;3.10;;;17.30;53.20;;;;;;5030124;28;20452;-84
2021/10/24 07:56:22;;;;;;;3.70;3.07;;;17.40;53.30;;;;;;5028929;28;20435;-85
2021/10/24 07:58:51;;;;;;;5.23;3.33;;;17.40;53.20;;;;;;5030767;28;20501;-86
2021/10/24 08:01:19;;;;;;;6.20;3.70;;;17.50;53.20;;;;;;5027242;28;20451;-85
2021/10/24 08:03:48;;;;;;;2.90;2.70;;;17.50;53.40;;;;;;5031094;28;20498;-82
2021/10/24 08:06:21;;;;;;;3.83;3.00;;;17.60;53.50;;;;;;5028710;28;20517;-85
2021/10/24 08:08:49;;;;;;;4.27;3.10;;;17.70;53.60;;;;;;5027253;28;20471;-85
2021/10/24 08:11:19;;;;;;;4.20;3.80;;;17.80;53.40;;;;;;5023886;28;20509;-84
2021/10/24 08:13:52;;;;;;;4.03;3.70;;;17.90;53.50;;;;;;5027141;28;20501;-86
2021/10/24 08:16:20;;;;;;;4.90;3.00;;;18.00;53.60;;;;;;5027812;28;20501;-85
2021/10/24 08:18:48;;;;;;;3.23;2.93;;;18.10;53.50;;;;;;5026943;28;20435;-86
2021/10/24 08:21:16;;;;;;;4.60;3.67;;;18.20;53.80;;;;;;5027149;28;20443;-86
2021/10/24 08:23:45;;;;;;;3.03;2.73;;;18.30;53.60;;;;;;5027684;28;20530;-86
2021/10/24 08:26:13;;;;;;;8.00;3.50;;;18.50;53.80;;;;;;5022079;28;20451;-84
2021/10/24 08:28:43;;;;;;;3.93;3.53;;;18.70;54.00;;;;;;5024902;28;20525;-84
2021/10/24 08:31:12;;;;;;;4.30;3.80;;;18.90;54.10;;;;;;5026994;28;20467;-86
2021/10/24 08:33:40;;;;;;;3.70;3.30;;;19.10;54.00;;;;;;5027242;28;20462;-86
2021/10/24 08:36:08;;;;;;;4.07;3.17;;;19.30;54.00;;;;;;5027479;28;20458;-87
2021/10/24 08:38:36;;;;;;;5.23;3.47;;;19.60;54.10;;;;;;5027645;28;20551;-87
2021/10/24 08:41:04;;;;;;;3.73;3.43;;;19.80;54.00;;;;;;5027475;28;20651;-86
2021/10/24 08:43:35;;;;;;;3.77;3.47;;;20.10;54.20;;;;;;5026662;28;20455;-87
2021/10/24 08:46:06;;;;;;;5.10;3.50;;;20.30;54.20;;;;;;5026824;28;20534;-87
2021/10/24 08:48:34;;;;;;;3.87;3.33;;;20.60;54.30;;;;;;5026919;28;20457;-87
2021/10/24 08:51:02;;;;;;;3.67;3.27;;;20.80;54.20;;;;;;5026743;28;20447;-88
2021/10/24 08:53:30;;;;;;;6.40;3.60;;;21.10;54.20;;;;;;5026490;28;20442;-85
2021/10/24 08:55:59;;;;;;;9.70;3.40;;;21.30;54.30;;;;;;5026803;28;20456;-84
2021/10/24 08:58:27;;;;;;;5.83;3.70;;;21.50;54.50;;;;;;5026990;28;20500;-84
2021/10/24 09:00:55;;;;;;;11.07;4.50;;;22.00;56.00;;;;;;5026327;28;20436;-84
2021/10/24 09:03:25;;;;;;;10.40;3.50;;;22.50;55.00;;;;;;5026736;28;20435;-81
2021/10/24 09:05:53;;;;;;;10.10;3.47;;;22.80;54.40;;;;;;5026232;28;20543;-84
2021/10/24 09:08:22;;;;;;;13.50;3.27;;;23.10;53.50;;;;;;5026669;28;20529;-83
2021/10/24 09:10:51;;;;;;;8.33;3.20;;;23.40;53.50;;;;;;5026144;28;20426;-85
2021/10/24 09:13:20;;;;;;;4.27;3.03;;;23.70;53.00;;;;;;5026960;28;20494;-85
2021/10/24 09:15:51;;;;;;;6.80;3.70;;;23.80;52.60;;;;;;5026788;28;20418;-85
2021/10/24 09:18:20;;;;;;;10.20;3.40;;;24.00;52.30;;;;;;5026638;28;20452;-86
2021/10/24 09:20:55;;;;;;;10.03;3.33;;;24.10;52.10;;;;;;5026693;28;20428;-84
2021/10/24 09:23:23;;;;;;;8.83;3.30;;;24.30;51.80;;;;;;5026792;28;20478;-83
2021/10/24 09:25:55;;;;;;;6.63;3.30;;;24.40;51.80;;;;;;5025865;28;20523;-83
2021/10/24 09:28:24;;;;;;;5.50;3.20;;;24.50;51.60;;;;;;5026213;28;20475;-84
2021/10/24 09:31:00;;;;;;;6.57;3.53;;;24.60;51.50;;;;;;5026155;28;20407;-83
2021/10/24 09:33:44;;;;;;;5.73;3.27;;;24.70;51.10;;;;;;5026846;28;20426;-82
2021/10/24 09:36:15;;;;;;;6.30;3.20;;;24.80;51.10;;;;;;5026490;28;20467;-83
2021/10/24 09:38:43;;;;;;;3.37;3.00;;;25.00;51.00;;;;;;5026035;28;20484;-84
2021/10/24 09:41:12;;;;;;;6.90;3.70;;;25.10;50.60;;;;;;5026561;28;20436;-84
2021/10/24 09:43:42;;;;;;;8.37;5.50;;;25.20;51.30;;;;;;5021652;28;20472;-83
2021/10/24 09:46:12;;;;;;;10.80;6.40;;;24.60;40.20;;;;;;5015011;28;20523;-79
2021/10/24 09:48:44;;;;;;;11.47;5.90;;;20.30;40.20;;;;;;5025665;28;20451;-78
2021/10/24 09:51:16;;;;;;;12.23;6.80;;;19.00;41.30;;;;;;5025201;28;20428;-79
2021/10/24 09:53:45;;;;;;;11.50;7.27;;;17.10;44.30;;;;;;5025910;28;20435;-82
2021/10/24 09:56:14;;;;;;;15.43;6.63;;;16.00;46.30;;;;;;5024867;28;20519;-78
2021/10/24 09:58:44;;;;;;;12.90;6.30;;;15.90;48.20;;;;;;5025812;28;20482;-80
2021/10/24 10:01:13;;;;;;;12.50;7.00;;;16.00;46.90;;;;;;5025220;28;20434;-80
2021/10/24 10:03:42;;;;;;;10.33;5.37;;;16.00;47.60;;;;;;5025507;28;20435;-79
2021/10/24 10:06:16;;;;;;;11.00;6.70;;;16.50;48.70;;;;;;5025641;28;20459;-78
2021/10/24 10:08:44;;;;;;;9.93;6.20;;;17.40;46.10;;;;;;5025622;28;20423;-81
2021/10/24 10:11:20;;;;;;;10.50;6.80;;;17.30;45.50;;;;;;5025942;28;20447;-80
2021/10/24 10:13:49;;;;;;;16.13;6.90;;;16.10;45.50;;;;;;5025822;28;20554;-83
2021/10/24 10:16:27;;;;;;;10.90;7.00;;;16.10;45.10;;;;;;5024800;28;20427;-81
2021/10/24 10:19:03;;;;;;;11.33;7.20;;;15.60;47.40;;;;;;5023215;28;20443;-78
2021/10/24 10:21:34;;;;;;;12.03;7.00;;;15.70;48.50;;;;;;5022395;28;20451;-80
2021/10/24 10:24:02;;;;;;;16.20;7.13;;;15.50;48.50;;;;;;5024512;28;20486;-81
2021/10/24 10:26:33;;;;;;;13.67;6.83;;;15.90;48.90;;;;;;5024995;28;20491;-81
2021/10/24 10:29:03;;;;;;;13.53;6.97;;;15.40;48.90;;;;;;5024790;28;20490;-81
2021/10/24 10:31:31;;;;;;;16.10;7.00;;;15.30;48.20;;;;;;5024673;28;20465;-79
2021/10/24 10:34:01;;;;;;;14.73;6.83;;;15.90;47.40;;;;;;5024687;28;20448;-81
2021/10/24 10:36:59;;;;;;;13.27;7.03;;;15.50;49.30;;;;;;5025185;28;20435;-81
2021/10/24 10:39:41;;;;;;;16.70;8.50;;;15.80;47.40;;;;;;5025047;28;20546;-82
2021/10/24 10:42:49;;;;;;;12.07;7.37;;;16.00;47.20;;;;;;5024854;28;20539;-83
2021/10/24 10:45:25;;;;;;;9.10;5.50;;;16.00;48.30;;;;;;5025155;28;20517;-80
2021/10/24 10:47:56;;;;;;;12.10;6.20;;;17.30;48.60;;;;;;5024845;28;20508;-82
2021/10/24 10:50:45;;;;;;;11.10;6.30;;;17.70;46.70;;;;;;5024351;28;20482;-82
2021/10/24 10:54:03;;;;;;;10.30;6.50;;;19.00;45.00;;;;;;5024906;28;20450;-83
2021/10/24 10:56:52;;;;;;;14.03;7.20;;;19.80;41.50;;;;;;5024837;28;20515;-83
2021/10/24 10:59:34;;;;;;;17.17;7.63;;;20.20;40.80;;;;;;5004897;28;20433;-83
2021/10/24 11:02:20;;;;;;;10.23;6.40;;;19.30;41.00;;;;;;5005228;28;20455;-82
2021/10/24 11:04:49;;;;;;;12.23;5.63;;;20.00;42.40;;;;;;5005055;28;20440;-82
2021/10/24 11:07:34;;;;;;;13.77;5.87;;;21.70;39.80;;;;;;5004775;28;20483;-87
2021/10/24 11:10:02;;;;;;;8.03;5.20;;;22.20;37.10;;;;;;5004621;28;20452;-85
2021/10/24 11:12:34;;;;;;;7.50;5.30;;;23.90;38.50;;;;;;5011516;28;20442;-84
2021/10/24 11:15:10;;;;;;;8.17;5.10;;;23.90;34.80;;;;;;5024788;28;20488;-83
2021/10/24 11:17:42;;;;;;;7.40;5.27;;;23.80;35.10;;;;;;5024346;28;20421;-83
2021/10/24 11:20:22;;;;;;;5.73;4.90;;;24.20;34.00;;;;;;5024193;28;20421;-81
2021/10/24 11:23:01;;;;;;;12.40;5.93;;;24.10;33.50;;;;;;5024433;28;20435;-81
2021/10/24 11:25:46;;;;;;;9.70;5.27;;;24.00;33.90;;;;;;5024422;28;20468;-82
2021/10/24 11:28:20;;;;;;;6.63;5.33;;;23.70;32.30;;;;;;5023992;28;20454;-81
2021/10/24 11:31:11;;;;;;;6.70;5.03;;;23.70;32.10;;;;;;5024620;28;20451;-81
2021/10/24 11:33:48;;;;;;;13.53;4.90;;;23.90;32.70;;;;;;5016754;28;20505;-79
2021/10/24 11:36:23;;;;;;;5.50;4.73;;;24.10;31.80;;;;;;5021447;28;20431;-82
2021/10/24 11:38:55;;;;;;;8.93;5.40;;;25.20;33.80;;;;;;5022270;28;20548;-79
2021/10/24 11:41:23;;;;;;;7.27;4.87;;;23.50;31.90;;;;;;5024004;28;20418;-80
2021/10/24 11:44:03;;;;;;;7.33;4.70;;;24.60;32.30;;;;;;5023967;28;20515;-80
2021/10/24 11:46:31;;;;;;;9.73;4.93;;;23.40;32.80;;;;;;5023998;28;20506;-81
2021/10/24 11:49:03;;;;;;;6.50;4.80;;;24.90;31.10;;;;;;5023650;28;20477;-82
2021/10/24 11:51:32;;;;;;;6.33;4.63;;;25.60;32.30;;;;;;5023799;28;20410;-80
2021/10/24 11:54:02;;;;;;;4.97;4.07;;;25.90;29.90;;;;;;5024004;28;20443;-82
2021/10/24 11:56:50;;;;;;;5.30;4.70;;;23.50;32.10;;;;;;5023908;28;20435;-83
2021/10/24 11:59:25;;;;;;;5.57;4.60;;;24.50;32.60;;;;;;5024233;28;20423;-81
2021/10/24 12:01:54;;;;;;;10.90;4.77;;;24.50;34.10;;;;;;5023776;28;20458;-81
2021/10/24 12:04:22;;;;;;;5.87;4.20;;;25.60;29.90;;;;;;5023328;28;20447;-80
2021/10/24 12:06:55;;;;;;;7.03;4.27;;;25.90;29.90;;;;;;5020810;28;20503;-80
2021/10/24 12:09:29;;;;;;;7.03;3.40;;;26.10;29.60;;;;;;5023573;28;20436;-82
2021/10/24 12:12:08;;;;;;;4.47;3.83;;;24.70;32.30;;;;;;5024035;28;20442;-82
2021/10/24 12:14:55;;;;;;;4.30;3.90;;;25.30;30.00;;;;;;5023770;28;20520;-82
2021/10/24 12:17:25;;;;;;;7.83;3.87;;;26.30;29.00;;;;;;5023604;28;20448;-88
2021/10/24 12:20:18;;;;;;;9.00;4.70;;;25.70;30.40;;;;;;5026870;28;20476;-81
2021/10/24 12:22:48;;;;;;;5.07;4.00;;;26.70;30.00;;;;;;5027646;28;20465;-83
2021/10/24 12:25:20;;;;;;;4.30;3.90;;;27.00;28.40;;;;;;5026229;28;20535;-83
2021/10/24 12:28:06;;;;;;;3.87;3.57;;;27.30;27.30;;;;;;5024383;28;20503;-82
2021/10/24 12:30:35;;;;;;;8.93;4.03;;;25.90;29.20;;;;;;5021107;28;20471;-82
2021/10/24 12:33:06;;;;;;;5.10;3.13;;;26.80;30.00;;;;;;5025909;28;20439;-81
2021/10/24 12:35:49;;;;;;;5.90;3.50;;;26.90;28.20;;;;;;5024090;28;20470;-83
2021/10/24 12:38:17;;;;;;;3.60;3.20;;;27.60;27.40;;;;;;5019634;28;20538;-82
2021/10/24 12:40:51;;;;;;;6.47;3.77;;;28.40;28.50;;;;;;5016375;28;20511;-82
2021/10/24 12:43:19;;;;;;;6.27;3.87;;;27.20;26.40;;;;;;5026624;28;20459;-84
2021/10/24 12:45:55;;;;;;;5.30;4.03;;;27.60;27.80;;;;;;5020915;28;20498;-81
2021/10/24 12:48:38;;;;;;;6.00;4.00;;;26.90;27.80;;;;;;5021621;28;20440;-82
2021/10/24 12:51:19;;;;;;;5.30;4.10;;;26.20;28.30;;;;;;5017104;28;20496;-82
2021/10/24 12:53:48;;;;;;;4.37;3.97;;;25.40;28.80;;;;;;5015015;28;20440;-84
2021/10/24 12:56:16;;;;;;;5.93;4.20;;;26.00;29.30;;;;;;5016832;28;20487;-89
2021/10/24 12:58:45;;;;;;;4.53;3.77;;;26.90;28.30;;;;;;5012477;28;20440;-89
2021/10/24 13:01:25;;;;;;;4.60;3.70;;;26.90;27.40;;;;;;5016067;28;20513;-85